Fort Severn Airport
CYER : now visible

Airfield :











YOU CAN JOIN US ON...

 
LOGIN :

Register | Disclaimer

   EN    FR    IT 

 









Legend :    VFR   Marginal VFR   IFR   Intensive IFR   Very Intensive IFR
Visi :
Ceiling :
>= 8 km
>= 3000ft
5 to 8 km
1000 to 3000 ft
1500m to 5 km
500 to 1000 ft
800 to 1500m
200 to 500 ft
< 800m
< 200 ft
Symbols :   Thunderstorms  Fog  Heavy snow  Heavy precipitations  Wind > 20 kt






- Airport Elevation : 48 ft
- IATA code : YER


CYER - Fort Severn

CURRENT METAR :
  • 090900Z AUTO 24010KT 9SM BKN095 BKN140 M30/M33 A2997 RMK SLP152

EXPIRED METARs :
  • 090800Z AUTO 25009KT 9SM CLR M31/M34 A2997 RMK SLP152
  • 090700Z AUTO 25009KT 9SM CLR M30/M34 A2997 RMK SLP153

TAF TAF CYER
Valid from the 09 at 10:00 until the 09 at 20:00 UTC


090938Z 0910/0920 24010KT P6SM SCT090
TEMPO 0910/0914 BKN090 RMK FCST BASED ON AUTO OBS. NXT FCST BY 091400Z



MET'MAP, your aeronautical weather chart ! - Copyright ORBIFLY December 2007 - Disclaimer

ORBIFLY MET'MAP TEAM :

Programming & Development : Alexandra Zaïnal
Concept & original design : Baudouin d'Aumeries
Assistance for programming : Marc-Olivier Méhu
Technical & hardware support : Manuel Goepfert

Contact : metmap@orbifly.com




SOURCES & CREDITS :

   NOAA       Earth
Advisory